sensor_id;sensor_type;location;lat;lon;timestamp;P1;durP1;ratioP1;P2;durP2;ratioP2
37297;SDS011;30517;51.932;4.278;2024-03-17T00:01:51;4.68;;;2.20;;
37297;SDS011;30517;51.932;4.278;2024-03-17T00:04:31;5.38;;;1.77;;
37297;SDS011;30517;51.932;4.278;2024-03-17T00:07:13;3.80;;;1.70;;
37297;SDS011;30517;51.932;4.278;2024-03-17T00:09:54;3.50;;;1.67;;
37297;SDS011;30517;51.932;4.278;2024-03-17T00:12:35;3.65;;;1.63;;
37297;SDS011;30517;51.932;4.278;2024-03-17T00:15:16;5.85;;;2.40;;
37297;SDS011;30517;51.932;4.278;2024-03-17T00:17:57;3.33;;;1.80;;
37297;SDS011;30517;51.932;4.278;2024-03-17T00:20:38;5.57;;;2.00;;
37297;SDS011;30517;51.932;4.278;2024-03-17T00:23:19;4.00;;;1.55;;
37297;SDS011;30517;51.932;4.278;2024-03-17T00:26:00;3.22;;;1.80;;
37297;SDS011;30517;51.932;4.278;2024-03-17T00:28:41;4.90;;;1.98;;
37297;SDS011;30517;51.932;4.278;2024-03-17T00:31:22;3.60;;;1.60;;
37297;SDS011;30517;51.932;4.278;2024-03-17T00:34:03;4.70;;;2.10;;
37297;SDS011;30517;51.932;4.278;2024-03-17T00:36:45;5.68;;;2.25;;
37297;SDS011;30517;51.932;4.278;2024-03-17T00:39:26;3.67;;;1.60;;
37297;SDS011;30517;51.932;4.278;2024-03-17T00:42:07;4.18;;;1.92;;
37297;SDS011;30517;51.932;4.278;2024-03-17T00:44:48;4.45;;;2.08;;
37297;SDS011;30517;51.932;4.278;2024-03-17T00:47:29;4.88;;;2.20;;
37297;SDS011;30517;51.932;4.278;2024-03-17T00:50:10;4.45;;;2.17;;
37297;SDS011;30517;51.932;4.278;2024-03-17T00:52:51;3.85;;;2.10;;
37297;SDS011;30517;51.932;4.278;2024-03-17T00:55:32;4.60;;;2.25;;
37297;SDS011;30517;51.932;4.278;2024-03-17T00:58:13;3.80;;;1.98;;
37297;SDS011;30517;51.932;4.278;2024-03-17T01:00:54;4.20;;;2.08;;
37297;SDS011;30517;51.932;4.278;2024-03-17T01:03:35;4.28;;;1.90;;
37297;SDS011;30517;51.932;4.278;2024-03-17T01:06:16;5.70;;;3.05;;
37297;SDS011;30517;51.932;4.278;2024-03-17T01:08:57;5.68;;;2.38;;
37297;SDS011;30517;51.932;4.278;2024-03-17T01:11:37;7.03;;;2.20;;
37297;SDS011;30517;51.932;4.278;2024-03-17T01:14:19;5.03;;;1.88;;
37297;SDS011;30517;51.932;4.278;2024-03-17T01:17:00;3.92;;;2.00;;
37297;SDS011;30517;51.932;4.278;2024-03-17T01:19:45;3.65;;;1.80;;
37297;SDS011;30517;51.932;4.278;2024-03-17T01:22:26;4.72;;;2.40;;
37297;SDS011;30517;51.932;4.278;2024-03-17T01:25:07;5.20;;;2.35;;
37297;SDS011;30517;51.932;4.278;2024-03-17T01:27:48;4.28;;;2.15;;
37297;SDS011;30517;51.932;4.278;2024-03-17T01:30:30;4.43;;;2.50;;
37297;SDS011;30517;51.932;4.278;2024-03-17T01:33:12;4.27;;;2.17;;
37297;SDS011;30517;51.932;4.278;2024-03-17T01:35:53;5.10;;;2.40;;
37297;SDS011;30517;51.932;4.278;2024-03-17T01:38:34;4.55;;;2.47;;
37297;SDS011;30517;51.932;4.278;2024-03-17T01:41:15;4.45;;;2.65;;
37297;SDS011;30517;51.932;4.278;2024-03-17T01:43:57;5.80;;;2.63;;
37297;SDS011;30517;51.932;4.278;2024-03-17T01:46:38;4.72;;;2.58;;
37297;SDS011;30517;51.932;4.278;2024-03-17T01:49:20;5.15;;;2.45;;
37297;SDS011;30517;51.932;4.278;2024-03-17T01:52:02;5.70;;;2.58;;
37297;SDS011;30517;51.932;4.278;2024-03-17T01:54:45;4.70;;;2.45;;
37297;SDS011;30517;51.932;4.278;2024-03-17T01:57:26;4.93;;;2.40;;
37297;SDS011;30517;51.932;4.278;2024-03-17T02:00:07;6.93;;;2.78;;
37297;SDS011;30517;51.932;4.278;2024-03-17T02:02:49;4.75;;;2.25;;
37297;SDS011;30517;51.932;4.278;2024-03-17T02:05:31;5.47;;;2.95;;
37297;SDS011;30517;51.932;4.278;2024-03-17T02:08:13;3.97;;;2.08;;
37297;SDS011;30517;51.932;4.278;2024-03-17T02:10:54;4.63;;;2.60;;
37297;SDS011;30517;51.932;4.278;2024-03-17T02:13:35;5.45;;;3.20;;
37297;SDS011;30517;51.932;4.278;2024-03-17T02:16:16;4.70;;;2.38;;
37297;SDS011;30517;51.932;4.278;2024-03-17T02:18:58;6.72;;;3.03;;
37297;SDS011;30517;51.932;4.278;2024-03-17T02:21:39;5.03;;;2.83;;
37297;SDS011;30517;51.932;4.278;2024-03-17T02:24:19;5.85;;;2.85;;
37297;SDS011;30517;51.932;4.278;2024-03-17T02:27:01;5.07;;;2.72;;
37297;SDS011;30517;51.932;4.278;2024-03-17T02:29:42;4.68;;;2.53;;
37297;SDS011;30517;51.932;4.278;2024-03-17T02:32:23;4.80;;;2.60;;
37297;SDS011;30517;51.932;4.278;2024-03-17T02:35:07;6.03;;;2.95;;
37297;SDS011;30517;51.932;4.278;2024-03-17T02:37:48;5.43;;;3.20;;
37297;SDS011;30517;51.932;4.278;2024-03-17T02:40:29;5.05;;;2.65;;
37297;SDS011;30517;51.932;4.278;2024-03-17T02:43:10;7.47;;;2.92;;
37297;SDS011;30517;51.932;4.278;2024-03-17T02:45:51;5.72;;;3.08;;
37297;SDS011;30517;51.932;4.278;2024-03-17T02:48:32;4.72;;;2.80;;
37297;SDS011;30517;51.932;4.278;2024-03-17T02:51:13;5.35;;;3.10;;
37297;SDS011;30517;51.932;4.278;2024-03-17T02:53:55;5.25;;;2.85;;
37297;SDS011;30517;51.932;4.278;2024-03-17T02:56:36;5.80;;;3.08;;
37297;SDS011;30517;51.932;4.278;2024-03-17T02:59:16;5.13;;;2.88;;
37297;SDS011;30517;51.932;4.278;2024-03-17T03:01:58;7.25;;;3.30;;
37297;SDS011;30517;51.932;4.278;2024-03-17T03:04:39;5.05;;;2.85;;
37297;SDS011;30517;51.932;4.278;2024-03-17T03:07:20;5.88;;;3.10;;
37297;SDS011;30517;51.932;4.278;2024-03-17T03:10:01;5.03;;;2.58;;
37297;SDS011;30517;51.932;4.278;2024-03-17T03:12:42;5.10;;;3.10;;
37297;SDS011;30517;51.932;4.278;2024-03-17T03:15:22;6.53;;;3.33;;
37297;SDS011;30517;51.932;4.278;2024-03-17T03:18:03;5.70;;;3.03;;
37297;SDS011;30517;51.932;4.278;2024-03-17T03:20:50;6.15;;;2.75;;
37297;SDS011;30517;51.932;4.278;2024-03-17T03:23:34;6.10;;;3.28;;
37297;SDS011;30517;51.932;4.278;2024-03-17T03:26:15;5.10;;;2.90;;
37297;SDS011;30517;51.932;4.278;2024-03-17T03:28:56;6.22;;;3.03;;
37297;SDS011;30517;51.932;4.278;2024-03-17T03:31:36;6.13;;;3.55;;
37297;SDS011;30517;51.932;4.278;2024-03-17T03:34:19;7.40;;;3.45;;
37297;SDS011;30517;51.932;4.278;2024-03-17T03:37:00;5.97;;;3.20;;
37297;SDS011;30517;51.932;4.278;2024-03-17T03:39:40;5.43;;;3.13;;
37297;SDS011;30517;51.932;4.278;2024-03-17T03:42:21;5.65;;;3.50;;
37297;SDS011;30517;51.932;4.278;2024-03-17T03:45:03;5.53;;;3.67;;
37297;SDS011;30517;51.932;4.278;2024-03-17T03:47:44;5.60;;;3.00;;
37297;SDS011;30517;51.932;4.278;2024-03-17T03:50:25;6.45;;;3.30;;
37297;SDS011;30517;51.932;4.278;2024-03-17T03:53:06;4.75;;;2.90;;
37297;SDS011;30517;51.932;4.278;2024-03-17T03:55:47;5.60;;;3.30;;
37297;SDS011;30517;51.932;4.278;2024-03-17T03:58:28;5.65;;;3.60;;
37297;SDS011;30517;51.932;4.278;2024-03-17T04:01:10;6.85;;;3.60;;
37297;SDS011;30517;51.932;4.278;2024-03-17T04:04:01;5.72;;;3.30;;
37297;SDS011;30517;51.932;4.278;2024-03-17T04:06:43;6.32;;;3.35;;
37297;SDS011;30517;51.932;4.278;2024-03-17T04:09:24;6.25;;;3.88;;
37297;SDS011;30517;51.932;4.278;2024-03-17T04:12:05;5.40;;;3.38;;
37297;SDS011;30517;51.932;4.278;2024-03-17T04:14:45;6.70;;;3.65;;
37297;SDS011;30517;51.932;4.278;2024-03-17T04:17:26;5.90;;;3.55;;
37297;SDS011;30517;51.932;4.278;2024-03-17T04:20:07;6.00;;;3.60;;
37297;SDS011;30517;51.932;4.278;2024-03-17T04:22:50;6.65;;;3.50;;
37297;SDS011;30517;51.932;4.278;2024-03-17T04:25:31;7.55;;;3.50;;
37297;SDS011;30517;51.932;4.278;2024-03-17T04:28:12;6.30;;;3.63;;
37297;SDS011;30517;51.932;4.278;2024-03-17T04:31:02;6.97;;;4.30;;
37297;SDS011;30517;51.932;4.278;2024-03-17T04:33:44;6.22;;;3.70;;
37297;SDS011;30517;51.932;4.278;2024-03-17T04:36:25;6.45;;;3.63;;
37297;SDS011;30517;51.932;4.278;2024-03-17T04:39:06;5.28;;;3.28;;
37297;SDS011;30517;51.932;4.278;2024-03-17T04:41:48;6.07;;;3.95;;
37297;SDS011;30517;51.932;4.278;2024-03-17T04:44:30;5.32;;;3.38;;
37297;SDS011;30517;51.932;4.278;2024-03-17T04:47:11;6.20;;;3.92;;
37297;SDS011;30517;51.932;4.278;2024-03-17T04:49:52;6.97;;;3.53;;
37297;SDS011;30517;51.932;4.278;2024-03-17T04:52:33;6.10;;;3.42;;
37297;SDS011;30517;51.932;4.278;2024-03-17T04:55:14;5.68;;;3.78;;
37297;SDS011;30517;51.932;4.278;2024-03-17T04:57:57;6.63;;;3.75;;
37297;SDS011;30517;51.932;4.278;2024-03-17T05:00:37;5.65;;;3.60;;
37297;SDS011;30517;51.932;4.278;2024-03-17T05:03:18;7.18;;;3.85;;
37297;SDS011;30517;51.932;4.278;2024-03-17T05:06:02;6.53;;;3.67;;
37297;SDS011;30517;51.932;4.278;2024-03-17T05:08:44;7.78;;;4.07;;
37297;SDS011;30517;51.932;4.278;2024-03-17T05:11:25;7.93;;;4.35;;
37297;SDS011;30517;51.932;4.278;2024-03-17T05:14:06;7.35;;;3.70;;
37297;SDS011;30517;51.932;4.278;2024-03-17T05:16:49;6.50;;;3.58;;
37297;SDS011;30517;51.932;4.278;2024-03-17T05:19:30;6.03;;;3.65;;
37297;SDS011;30517;51.932;4.278;2024-03-17T05:22:11;6.97;;;3.72;;
37297;SDS011;30517;51.932;4.278;2024-03-17T05:24:52;6.10;;;3.20;;
37297;SDS011;30517;51.932;4.278;2024-03-17T05:27:33;6.07;;;3.55;;
37297;SDS011;30517;51.932;4.278;2024-03-17T05:30:14;6.97;;;3.60;;
37297;SDS011;30517;51.932;4.278;2024-03-17T05:32:55;6.55;;;3.75;;
37297;SDS011;30517;51.932;4.278;2024-03-17T05:35:36;6.43;;;3.75;;
37297;SDS011;30517;51.932;4.278;2024-03-17T05:38:18;7.70;;;4.25;;
37297;SDS011;30517;51.932;4.278;2024-03-17T05:41:01;6.72;;;3.72;;
37297;SDS011;30517;51.932;4.278;2024-03-17T05:43:43;7.03;;;4.27;;
37297;SDS011;30517;51.932;4.278;2024-03-17T05:46:24;6.90;;;3.83;;
37297;SDS011;30517;51.932;4.278;2024-03-17T05:49:09;7.15;;;3.85;;
37297;SDS011;30517;51.932;4.278;2024-03-17T05:51:50;6.68;;;4.05;;
37297;SDS011;30517;51.932;4.278;2024-03-17T05:54:31;6.65;;;3.58;;
37297;SDS011;30517;51.932;4.278;2024-03-17T05:57:12;7.10;;;4.28;;
37297;SDS011;30517;51.932;4.278;2024-03-17T05:59:55;6.97;;;3.85;;
37297;SDS011;30517;51.932;4.278;2024-03-17T06:02:36;6.25;;;3.88;;
37297;SDS011;30517;51.932;4.278;2024-03-17T06:05:17;6.75;;;3.65;;
37297;SDS011;30517;51.932;4.278;2024-03-17T06:07:58;6.95;;;4.03;;
37297;SDS011;30517;51.932;4.278;2024-03-17T06:10:43;7.15;;;4.30;;
37297;SDS011;30517;51.932;4.278;2024-03-17T06:13:25;7.80;;;4.00;;
37297;SDS011;30517;51.932;4.278;2024-03-17T06:16:08;8.80;;;4.30;;
37297;SDS011;30517;51.932;4.278;2024-03-17T06:18:49;6.93;;;3.80;;
37297;SDS011;30517;51.932;4.278;2024-03-17T06:21:31;6.77;;;4.20;;
37297;SDS011;30517;51.932;4.278;2024-03-17T06:24:12;6.10;;;3.67;;
37297;SDS011;30517;51.932;4.278;2024-03-17T06:26:53;7.45;;;4.28;;
37297;SDS011;30517;51.932;4.278;2024-03-17T06:29:34;8.38;;;4.82;;
37297;SDS011;30517;51.932;4.278;2024-03-17T06:32:15;8.02;;;4.63;;
37297;SDS011;30517;51.932;4.278;2024-03-17T06:34:57;7.30;;;4.32;;
37297;SDS011;30517;51.932;4.278;2024-03-17T06:37:38;6.32;;;4.32;;
37297;SDS011;30517;51.932;4.278;2024-03-17T06:40:19;6.38;;;3.70;;
37297;SDS011;30517;51.932;4.278;2024-03-17T06:43:00;6.60;;;4.03;;
37297;SDS011;30517;51.932;4.278;2024-03-17T06:45:41;7.45;;;3.88;;
37297;SDS011;30517;51.932;4.278;2024-03-17T06:48:21;6.78;;;4.10;;
37297;SDS011;30517;51.932;4.278;2024-03-17T06:51:03;6.10;;;3.88;;
37297;SDS011;30517;51.932;4.278;2024-03-17T06:53:44;9.25;;;4.78;;
37297;SDS011;30517;51.932;4.278;2024-03-17T06:56:25;7.47;;;4.38;;
37297;SDS011;30517;51.932;4.278;2024-03-17T06:59:05;8.10;;;4.30;;
37297;SDS011;30517;51.932;4.278;2024-03-17T07:01:46;7.53;;;4.47;;
37297;SDS011;30517;51.932;4.278;2024-03-17T07:04:27;7.65;;;4.00;;
37297;SDS011;30517;51.932;4.278;2024-03-17T07:07:08;7.50;;;4.70;;
37297;SDS011;30517;51.932;4.278;2024-03-17T07:09:49;6.82;;;3.85;;
37297;SDS011;30517;51.932;4.278;2024-03-17T07:12:30;8.45;;;4.72;;
37297;SDS011;30517;51.932;4.278;2024-03-17T07:15:10;5.72;;;3.70;;
37297;SDS011;30517;51.932;4.278;2024-03-17T07:17:51;7.07;;;3.92;;
37297;SDS011;30517;51.932;4.278;2024-03-17T07:20:32;6.85;;;3.58;;
37297;SDS011;30517;51.932;4.278;2024-03-17T07:23:16;6.93;;;4.40;;
37297;SDS011;30517;51.932;4.278;2024-03-17T07:25:57;7.43;;;3.85;;
37297;SDS011;30517;51.932;4.278;2024-03-17T07:28:39;7.45;;;4.07;;
37297;SDS011;30517;51.932;4.278;2024-03-17T07:31:21;7.25;;;4.43;;
37297;SDS011;30517;51.932;4.278;2024-03-17T07:34:01;7.05;;;3.88;;
37297;SDS011;30517;51.932;4.278;2024-03-17T07:36:42;7.30;;;3.85;;
37297;SDS011;30517;51.932;4.278;2024-03-17T07:39:23;8.95;;;4.03;;
37297;SDS011;30517;51.932;4.278;2024-03-17T07:42:04;6.82;;;4.40;;
37297;SDS011;30517;51.932;4.278;2024-03-17T07:44:47;8.45;;;5.07;;
37297;SDS011;30517;51.932;4.278;2024-03-17T07:47:28;7.40;;;4.38;;
37297;SDS011;30517;51.932;4.278;2024-03-17T07:50:15;7.68;;;4.20;;
37297;SDS011;30517;51.932;4.278;2024-03-17T07:52:57;6.35;;;3.97;;
37297;SDS011;30517;51.932;4.278;2024-03-17T07:55:38;8.25;;;4.47;;
37297;SDS011;30517;51.932;4.278;2024-03-17T07:58:19;6.13;;;3.55;;
37297;SDS011;30517;51.932;4.278;2024-03-17T08:01:00;6.63;;;3.75;;
37297;SDS011;30517;51.932;4.278;2024-03-17T08:03:45;6.00;;;3.85;;
37297;SDS011;30517;51.932;4.278;2024-03-17T08:06:29;7.40;;;4.25;;
37297;SDS011;30517;51.932;4.278;2024-03-17T08:09:10;7.38;;;4.60;;
37297;SDS011;30517;51.932;4.278;2024-03-17T08:11:52;6.82;;;3.97;;
37297;SDS011;30517;51.932;4.278;2024-03-17T08:14:33;7.43;;;3.85;;
37297;SDS011;30517;51.932;4.278;2024-03-17T08:17:14;6.28;;;3.78;;
37297;SDS011;30517;51.932;4.278;2024-03-17T08:19:55;6.65;;;3.78;;
37297;SDS011;30517;51.932;4.278;2024-03-17T08:22:36;8.40;;;4.05;;
37297;SDS011;30517;51.932;4.278;2024-03-17T08:25:17;7.45;;;3.92;;
37297;SDS011;30517;51.932;4.278;2024-03-17T08:27:58;6.22;;;3.55;;
37297;SDS011;30517;51.932;4.278;2024-03-17T08:30:39;6.65;;;3.95;;
37297;SDS011;30517;51.932;4.278;2024-03-17T08:33:20;6.45;;;4.22;;
37297;SDS011;30517;51.932;4.278;2024-03-17T08:36:03;6.47;;;3.78;;
37297;SDS011;30517;51.932;4.278;2024-03-17T08:38:47;6.53;;;3.45;;
37297;SDS011;30517;51.932;4.278;2024-03-17T08:41:27;6.53;;;4.00;;
37297;SDS011;30517;51.932;4.278;2024-03-17T08:44:10;7.35;;;3.72;;
37297;SDS011;30517;51.932;4.278;2024-03-17T08:46:51;6.15;;;3.55;;
37297;SDS011;30517;51.932;4.278;2024-03-17T08:49:32;7.25;;;3.63;;
37297;SDS011;30517;51.932;4.278;2024-03-17T08:52:13;7.18;;;3.80;;
37297;SDS011;30517;51.932;4.278;2024-03-17T08:54:54;6.63;;;3.60;;
37297;SDS011;30517;51.932;4.278;2024-03-17T08:57:34;7.15;;;4.25;;
37297;SDS011;30517;51.932;4.278;2024-03-17T09:00:15;5.32;;;3.25;;
37297;SDS011;30517;51.932;4.278;2024-03-17T09:02:56;6.32;;;3.92;;
37297;SDS011;30517;51.932;4.278;2024-03-17T09:05:44;6.78;;;4.00;;
37297;SDS011;30517;51.932;4.278;2024-03-17T09:08:26;5.82;;;3.35;;
37297;SDS011;30517;51.932;4.278;2024-03-17T09:11:11;8.15;;;3.83;;
37297;SDS011;30517;51.932;4.278;2024-03-17T09:13:53;7.22;;;3.28;;
37297;SDS011;30517;51.932;4.278;2024-03-17T09:16:34;6.55;;;3.65;;
37297;SDS011;30517;51.932;4.278;2024-03-17T09:19:15;5.70;;;3.13;;
37297;SDS011;30517;51.932;4.278;2024-03-17T09:21:56;6.20;;;3.83;;
37297;SDS011;30517;51.932;4.278;2024-03-17T09:24:37;7.57;;;4.45;;
37297;SDS011;30517;51.932;4.278;2024-03-17T09:27:18;6.15;;;3.78;;
37297;SDS011;30517;51.932;4.278;2024-03-17T09:30:01;6.35;;;3.45;;
37297;SDS011;30517;51.932;4.278;2024-03-17T09:32:45;5.72;;;3.22;;
37297;SDS011;30517;51.932;4.278;2024-03-17T09:35:27;7.28;;;3.85;;
37297;SDS011;30517;51.932;4.278;2024-03-17T09:38:08;6.30;;;3.58;;
37297;SDS011;30517;51.932;4.278;2024-03-17T09:40:49;6.15;;;3.42;;
37297;SDS011;30517;51.932;4.278;2024-03-17T09:43:35;10.75;;;6.40;;
37297;SDS011;30517;51.932;4.278;2024-03-17T09:46:16;11.88;;;6.43;;
37297;SDS011;30517;51.932;4.278;2024-03-17T09:48:58;10.30;;;5.88;;
37297;SDS011;30517;51.932;4.278;2024-03-17T09:51:39;11.27;;;6.10;;
37297;SDS011;30517;51.932;4.278;2024-03-17T09:54:19;10.27;;;5.85;;
37297;SDS011;30517;51.932;4.278;2024-03-17T09:57:00;9.93;;;5.32;;
37297;SDS011;30517;51.932;4.278;2024-03-17T09:59:42;10.88;;;5.50;;
37297;SDS011;30517;51.932;4.278;2024-03-17T10:02:22;11.63;;;5.88;;
37297;SDS011;30517;51.932;4.278;2024-03-17T10:05:03;9.25;;;5.60;;
37297;SDS011;30517;51.932;4.278;2024-03-17T10:07:44;7.97;;;4.93;;
37297;SDS011;30517;51.932;4.278;2024-03-17T10:10:25;8.77;;;5.18;;
37297;SDS011;30517;51.932;4.278;2024-03-17T10:13:07;9.05;;;4.75;;
37297;SDS011;30517;51.932;4.278;2024-03-17T10:15:52;10.15;;;5.57;;
37297;SDS011;30517;51.932;4.278;2024-03-17T10:18:33;8.73;;;5.50;;
37297;SDS011;30517;51.932;4.278;2024-03-17T10:21:25;7.75;;;4.57;;
37297;SDS011;30517;51.932;4.278;2024-03-17T10:24:11;9.73;;;4.80;;
37297;SDS011;30517;51.932;4.278;2024-03-17T10:26:56;8.30;;;5.05;;
37297;SDS011;30517;51.932;4.278;2024-03-17T10:29:37;8.85;;;5.20;;
37297;SDS011;30517;51.932;4.278;2024-03-17T10:32:19;7.85;;;5.03;;
37297;SDS011;30517;51.932;4.278;2024-03-17T10:35:05;9.10;;;5.00;;
37297;SDS011;30517;51.932;4.278;2024-03-17T10:38:09;8.55;;;5.32;;
37297;SDS011;30517;51.932;4.278;2024-03-17T10:40:53;9.25;;;5.18;;
37297;SDS011;30517;51.932;4.278;2024-03-17T10:43:34;8.40;;;5.10;;
37297;SDS011;30517;51.932;4.278;2024-03-17T10:46:17;10.45;;;5.40;;
37297;SDS011;30517;51.932;4.278;2024-03-17T10:49:01;6.90;;;4.50;;
37297;SDS011;30517;51.932;4.278;2024-03-17T10:51:42;6.82;;;4.63;;
37297;SDS011;30517;51.932;4.278;2024-03-17T10:54:28;9.02;;;4.95;;
37297;SDS011;30517;51.932;4.278;2024-03-17T11:00:08;7.95;;;5.20;;
37297;SDS011;30517;51.932;4.278;2024-03-17T11:02:57;6.82;;;4.43;;
37297;SDS011;30517;51.932;4.278;2024-03-17T11:05:38;10.63;;;4.38;;
37297;SDS011;30517;51.932;4.278;2024-03-17T11:08:19;9.32;;;4.55;;
37297;SDS011;30517;51.932;4.278;2024-03-17T11:11:00;9.13;;;4.97;;
37297;SDS011;30517;51.932;4.278;2024-03-17T11:13:43;7.63;;;5.07;;
37297;SDS011;30517;51.932;4.278;2024-03-17T11:16:25;7.95;;;4.90;;
37297;SDS011;30517;51.932;4.278;2024-03-17T11:19:12;7.50;;;4.25;;
37297;SDS011;30517;51.932;4.278;2024-03-17T11:21:56;10.25;;;4.75;;
37297;SDS011;30517;51.932;4.278;2024-03-17T11:24:37;6.43;;;3.90;;
37297;SDS011;30517;51.932;4.278;2024-03-17T11:27:38;7.30;;;4.25;;
37297;SDS011;30517;51.932;4.278;2024-03-17T11:39:09;7.50;;;4.57;;
37297;SDS011;30517;51.932;4.278;2024-03-17T11:42:04;7.57;;;4.60;;
37297;SDS011;30517;51.932;4.278;2024-03-17T11:44:55;7.90;;;4.32;;
37297;SDS011;30517;51.932;4.278;2024-03-17T11:47:39;7.97;;;4.15;;
37297;SDS011;30517;51.932;4.278;2024-03-17T11:50:21;8.20;;;4.07;;
37297;SDS011;30517;51.932;4.278;2024-03-17T11:53:01;8.27;;;4.20;;
37297;SDS011;30517;51.932;4.278;2024-03-17T11:55:47;7.65;;;4.25;;
37297;SDS011;30517;51.932;4.278;2024-03-17T11:58:29;6.43;;;4.10;;
37297;SDS011;30517;51.932;4.278;2024-03-17T12:01:10;7.53;;;4.22;;
